sensor_id;sensor_type;location;lat;lon;timestamp;temperature;humidity
31525;DHT22;18134;52.298;8.888;2023-01-30T01:22:58;3.50;99.90
31525;DHT22;18134;52.298;8.888;2023-01-30T01:27:50;3.60;99.90
31525;DHT22;18134;52.298;8.888;2023-01-30T01:30:18;3.60;99.90
31525;DHT22;18134;52.298;8.888;2023-01-30T01:32:46;3.90;99.90
31525;DHT22;18134;52.298;8.888;2023-01-30T01:37:37;3.50;99.90
31525;DHT22;18134;52.298;8.888;2023-01-30T01:40:03;3.80;99.90
31525;DHT22;18134;52.298;8.888;2023-01-30T01:42:48;3.80;99.90
31525;DHT22;18134;52.298;8.888;2023-01-30T01:45:19;4.20;99.90
31525;DHT22;18134;52.298;8.888;2023-01-30T01:59:56;3.90;99.90
31525;DHT22;18134;52.298;8.888;2023-01-30T02:02:23;4.00;99.90
31525;DHT22;18134;52.298;8.888;2023-01-30T02:04:54;3.90;99.90
31525;DHT22;18134;52.298;8.888;2023-01-30T02:07:32;3.70;99.90
31525;DHT22;18134;52.298;8.888;2023-01-30T02:09:59;3.70;99.90
31525;DHT22;18134;52.298;8.888;2023-01-30T02:12:25;3.70;99.90
31525;DHT22;18134;52.298;8.888;2023-01-30T02:14:50;3.70;99.90
31525;DHT22;18134;52.298;8.888;2023-01-30T02:17:18;3.80;99.90
31525;DHT22;18134;52.298;8.888;2023-01-30T02:27:46;3.80;99.90
31525;DHT22;18134;52.298;8.888;2023-01-30T02:33:01;3.80;99.90
31525;DHT22;18134;52.298;8.888;2023-01-30T02:35:48;3.80;99.90
31525;DHT22;18134;52.298;8.888;2023-01-30T02:43:43;4.10;99.90
31525;DHT22;18134;52.298;8.888;2023-01-30T02:46:04;3.80;99.90
31525;DHT22;18134;52.298;8.888;2023-01-30T02:51:25;3.90;99.90
31525;DHT22;18134;52.298;8.888;2023-01-30T02:53:51;4.00;99.90
31525;DHT22;18134;52.298;8.888;2023-01-30T02:56:18;4.30;99.90
31525;DHT22;18134;52.298;8.888;2023-01-30T02:58:45;4.50;99.90
31525;DHT22;18134;52.298;8.888;2023-01-30T03:01:19;4.30;99.90
31525;DHT22;18134;52.298;8.888;2023-01-30T03:08:47;4.80;99.90
31525;DHT22;18134;52.298;8.888;2023-01-30T03:11:16;4.00;99.90
31525;DHT22;18134;52.298;8.888;2023-01-30T03:13:55;4.00;99.90
31525;DHT22;18134;52.298;8.888;2023-01-30T03:18:55;8.40;99.90
31525;DHT22;18134;52.298;8.888;2023-01-30T03:21:21;4.20;99.90
31525;DHT22;18134;52.298;8.888;2023-01-30T03:23:46;4.20;99.90
31525;DHT22;18134;52.298;8.888;2023-01-30T03:26:16;4.20;99.90
31525;DHT22;18134;52.298;8.888;2023-01-30T03:28:42;4.50;99.90
31525;DHT22;18134;52.298;8.888;2023-01-30T03:31:08;4.20;99.90
31525;DHT22;18134;52.298;8.888;2023-01-30T03:33:34;4.40;99.90
31525;DHT22;18134;52.298;8.888;2023-01-30T03:36:00;4.70;99.90
31525;DHT22;18134;52.298;8.888;2023-01-30T03:38:28;4.30;99.90
31525;DHT22;18134;52.298;8.888;2023-01-30T03:40:55;4.30;99.90
31525;DHT22;18134;52.298;8.888;2023-01-30T03:43:21;4.40;99.90
31525;DHT22;18134;52.298;8.888;2023-01-30T03:45:47;4.50;99.90
31525;DHT22;18134;52.298;8.888;2023-01-30T03:48:12;4.40;99.90
31525;DHT22;18134;52.298;8.888;2023-01-30T03:50:40;4.40;99.90
31525;DHT22;18134;52.298;8.888;2023-01-30T03:53:05;4.40;99.90
31525;DHT22;18134;52.298;8.888;2023-01-30T03:55:31;4.60;99.90
31525;DHT22;18134;52.298;8.888;2023-01-30T03:57:57;4.70;99.90
31525;DHT22;18134;52.298;8.888;2023-01-30T04:00:22;4.60;99.90
31525;DHT22;18134;52.298;8.888;2023-01-30T04:02:48;4.70;99.90
31525;DHT22;18134;52.298;8.888;2023-01-30T04:05:16;5.40;99.90
31525;DHT22;18134;52.298;8.888;2023-01-30T04:07:41;4.50;99.90
31525;DHT22;18134;52.298;8.888;2023-01-30T04:10:07;4.70;99.90
31525;DHT22;18134;52.298;8.888;2023-01-30T04:12:35;4.70;99.90
31525;DHT22;18134;52.298;8.888;2023-01-30T04:15:01;4.60;99.90
31525;DHT22;18134;52.298;8.888;2023-01-30T04:17:26;4.80;99.90
31525;DHT22;18134;52.298;8.888;2023-01-30T04:19:54;5.10;99.90
31525;DHT22;18134;52.298;8.888;2023-01-30T04:22:20;6.10;99.90
31525;DHT22;18134;52.298;8.888;2023-01-30T04:24:45;4.90;99.90
31525;DHT22;18134;52.298;8.888;2023-01-30T04:27:13;5.10;99.90
31525;DHT22;18134;52.298;8.888;2023-01-30T04:29:39;4.80;99.90
31525;DHT22;18134;52.298;8.888;2023-01-30T04:32:04;4.80;99.90
31525;DHT22;18134;52.298;8.888;2023-01-30T04:34:30;4.80;99.90
31525;DHT22;18134;52.298;8.888;2023-01-30T04:36:55;4.90;99.90
31525;DHT22;18134;52.298;8.888;2023-01-30T04:39:21;4.80;99.90
31525;DHT22;18134;52.298;8.888;2023-01-30T04:41:46;5.70;99.90
31525;DHT22;18134;52.298;8.888;2023-01-30T04:44:12;4.80;99.90
31525;DHT22;18134;52.298;8.888;2023-01-30T04:46:37;5.00;99.90
31525;DHT22;18134;52.298;8.888;2023-01-30T04:49:03;4.90;99.90
31525;DHT22;18134;52.298;8.888;2023-01-30T04:51:28;5.60;99.90
31525;DHT22;18134;52.298;8.888;2023-01-30T04:53:54;5.10;99.90
31525;DHT22;18134;52.298;8.888;2023-01-30T04:56:22;5.50;99.90
31525;DHT22;18134;52.298;8.888;2023-01-30T04:58:47;5.00;99.90
31525;DHT22;18134;52.298;8.888;2023-01-30T05:01:23;5.20;99.90
31525;DHT22;18134;52.298;8.888;2023-01-30T05:03:52;5.20;99.90
31525;DHT22;18134;52.298;8.888;2023-01-30T05:06:18;5.30;99.90
31525;DHT22;18134;52.298;8.888;2023-01-30T05:08:46;5.40;99.90
31525;DHT22;18134;52.298;8.888;2023-01-30T05:11:12;5.40;99.90
31525;DHT22;18134;52.298;8.888;2023-01-30T05:13:37;5.40;99.90
31525;DHT22;18134;52.298;8.888;2023-01-30T05:16:03;5.50;99.90
31525;DHT22;18134;52.298;8.888;2023-01-30T05:18:29;6.20;99.90
31525;DHT22;18134;52.298;8.888;2023-01-30T05:23:23;5.70;99.90
31525;DHT22;18134;52.298;8.888;2023-01-30T05:28:15;5.70;99.90
31525;DHT22;18134;52.298;8.888;2023-01-30T05:33:06;6.00;99.90
31525;DHT22;18134;52.298;8.888;2023-01-30T05:35:31;5.90;99.90
31525;DHT22;18134;52.298;8.888;2023-01-30T05:37:57;5.90;99.90
31525;DHT22;18134;52.298;8.888;2023-01-30T05:40:22;5.90;99.90
31525;DHT22;18134;52.298;8.888;2023-01-30T05:42:48;6.00;99.90
31525;DHT22;18134;52.298;8.888;2023-01-30T05:45:14;6.10;99.90
31525;DHT22;18134;52.298;8.888;2023-01-30T05:47:41;6.10;99.90
31525;DHT22;18134;52.298;8.888;2023-01-30T05:50:07;6.10;99.90
31525;DHT22;18134;52.298;8.888;2023-01-30T05:52:33;6.20;99.90
31525;DHT22;18134;52.298;8.888;2023-01-30T05:54:58;6.30;99.90
31525;DHT22;18134;52.298;8.888;2023-01-30T05:57:24;6.20;99.90
31525;DHT22;18134;52.298;8.888;2023-01-30T05:59:49;6.20;99.90
31525;DHT22;18134;52.298;8.888;2023-01-30T06:02:15;6.30;99.90
31525;DHT22;18134;52.298;8.888;2023-01-30T06:04:40;6.30;99.90
31525;DHT22;18134;52.298;8.888;2023-01-30T06:07:08;6.80;99.90
31525;DHT22;18134;52.298;8.888;2023-01-30T06:09:34;6.30;99.90
31525;DHT22;18134;52.298;8.888;2023-01-30T06:14:25;6.20;99.90
31525;DHT22;18134;52.298;8.888;2023-01-30T06:16:51;5.30;99.90
31525;DHT22;18134;52.298;8.888;2023-01-30T06:19:16;6.40;99.90
31525;DHT22;18134;52.298;8.888;2023-01-30T06:21:42;6.40;99.90
31525;DHT22;18134;52.298;8.888;2023-01-30T06:24:07;6.40;99.90
31525;DHT22;18134;52.298;8.888;2023-01-30T06:26:33;6.30;99.90
31525;DHT22;18134;52.298;8.888;2023-01-30T06:28:58;6.70;99.90
31525;DHT22;18134;52.298;8.888;2023-01-30T06:31:24;6.40;99.90
31525;DHT22;18134;52.298;8.888;2023-01-30T06:36:15;6.10;99.90
31525;DHT22;18134;52.298;8.888;2023-01-30T06:38:41;6.10;99.90
31525;DHT22;18134;52.298;8.888;2023-01-30T06:41:06;6.40;99.90
31525;DHT22;18134;52.298;8.888;2023-01-30T06:43:32;6.30;99.90
31525;DHT22;18134;52.298;8.888;2023-01-30T06:45:58;6.40;99.90
31525;DHT22;18134;52.298;8.888;2023-01-30T06:48:23;5.70;99.90
31525;DHT22;18134;52.298;8.888;2023-01-30T06:50:49;6.30;99.90
31525;DHT22;18134;52.298;8.888;2023-01-30T06:53:14;6.20;99.90
31525;DHT22;18134;52.298;8.888;2023-01-30T06:55:42;6.40;99.90
31525;DHT22;18134;52.298;8.888;2023-01-30T06:58:12;6.30;99.90
31525;DHT22;18134;52.298;8.888;2023-01-30T07:00:38;6.20;99.90
31525;DHT22;18134;52.298;8.888;2023-01-30T07:03:09;6.10;99.90
31525;DHT22;18134;52.298;8.888;2023-01-30T07:05:36;6.00;99.90
31525;DHT22;18134;52.298;8.888;2023-01-30T07:08:01;6.00;99.90
31525;DHT22;18134;52.298;8.888;2023-01-30T07:10:27;6.00;99.90
31525;DHT22;18134;52.298;8.888;2023-01-30T07:12:56;6.50;99.90
31525;DHT22;18134;52.298;8.888;2023-01-30T07:15:23;6.10;99.90
31525;DHT22;18134;52.298;8.888;2023-01-30T07:17:49;5.90;99.90
31525;DHT22;18134;52.298;8.888;2023-01-30T07:20:17;6.10;99.90
31525;DHT22;18134;52.298;8.888;2023-01-30T07:22:47;6.00;99.90
31525;DHT22;18134;52.298;8.888;2023-01-30T07:25:13;6.20;99.90
31525;DHT22;18134;52.298;8.888;2023-01-30T07:27:41;5.80;99.90
31525;DHT22;18134;52.298;8.888;2023-01-30T07:30:07;5.70;99.90
31525;DHT22;18134;52.298;8.888;2023-01-30T07:32:33;5.80;99.90
31525;DHT22;18134;52.298;8.888;2023-01-30T07:34:58;5.90;99.90
31525;DHT22;18134;52.298;8.888;2023-01-30T07:37:24;6.00;99.90
31525;DHT22;18134;52.298;8.888;2023-01-30T07:39:49;6.50;99.90
31525;DHT22;18134;52.298;8.888;2023-01-30T07:42:15;6.50;99.90
31525;DHT22;18134;52.298;8.888;2023-01-30T07:44:40;6.10;99.90
31525;DHT22;18134;52.298;8.888;2023-01-30T07:47:06;6.20;99.90
31525;DHT22;18134;52.298;8.888;2023-01-30T07:49:31;6.00;99.90
31525;DHT22;18134;52.298;8.888;2023-01-30T07:51:57;6.10;99.90
31525;DHT22;18134;52.298;8.888;2023-01-30T07:54:22;6.00;99.90
31525;DHT22;18134;52.298;8.888;2023-01-30T07:56:48;6.20;99.90
31525;DHT22;18134;52.298;8.888;2023-01-30T07:59:13;6.10;99.90
31525;DHT22;18134;52.298;8.888;2023-01-30T08:01:39;6.30;99.90
31525;DHT22;18134;52.298;8.888;2023-01-30T08:04:04;6.00;99.90
31525;DHT22;18134;52.298;8.888;2023-01-30T08:06:30;6.00;99.90
31525;DHT22;18134;52.298;8.888;2023-01-30T08:08:56;6.00;99.90
31525;DHT22;18134;52.298;8.888;2023-01-30T08:11:22;6.10;99.90
31525;DHT22;18134;52.298;8.888;2023-01-30T08:13:47;6.20;99.90
31525;DHT22;18134;52.298;8.888;2023-01-30T08:16:13;6.20;99.90
31525;DHT22;18134;52.298;8.888;2023-01-30T08:18:38;6.20;99.90
31525;DHT22;18134;52.298;8.888;2023-01-30T08:21:05;6.30;99.90
31525;DHT22;18134;52.298;8.888;2023-01-30T08:23:31;6.30;99.90
31525;DHT22;18134;52.298;8.888;2023-01-30T08:25:58;6.10;99.90
31525;DHT22;18134;52.298;8.888;2023-01-30T08:28:24;6.30;99.90
31525;DHT22;18134;52.298;8.888;2023-01-30T08:30:49;6.00;99.90
31525;DHT22;18134;52.298;8.888;2023-01-30T08:33:16;6.20;99.90
31525;DHT22;18134;52.298;8.888;2023-01-30T08:35:42;6.30;99.90
31525;DHT22;18134;52.298;8.888;2023-01-30T08:38:07;6.20;99.90
31525;DHT22;18134;52.298;8.888;2023-01-30T08:40:33;6.50;99.90
31525;DHT22;18134;52.298;8.888;2023-01-30T08:43:02;6.40;99.90
31525;DHT22;18134;52.298;8.888;2023-01-30T08:45:28;6.40;99.90
31525;DHT22;18134;52.298;8.888;2023-01-30T08:47:57;6.40;99.90
31525;DHT22;18134;52.298;8.888;2023-01-30T08:50:22;6.70;99.90
31525;DHT22;18134;52.298;8.888;2023-01-30T08:52:48;6.40;99.90
31525;DHT22;18134;52.298;8.888;2023-01-30T08:55:13;6.40;99.90
31525;DHT22;18134;52.298;8.888;2023-01-30T08:57:41;7.20;99.90
31525;DHT22;18134;52.298;8.888;2023-01-30T09:00:07;6.40;99.90
31525;DHT22;18134;52.298;8.888;2023-01-30T09:02:36;6.50;99.90
31525;DHT22;18134;52.298;8.888;2023-01-30T09:05:02;5.60;99.90
31525;DHT22;18134;52.298;8.888;2023-01-30T09:07:27;6.60;99.90
31525;DHT22;18134;52.298;8.888;2023-01-30T09:09:54;6.60;99.90
31525;DHT22;18134;52.298;8.888;2023-01-30T09:12:20;6.60;99.90
31525;DHT22;18134;52.298;8.888;2023-01-30T09:14:45;5.60;99.90
31525;DHT22;18134;52.298;8.888;2023-01-30T09:17:11;6.70;99.90
31525;DHT22;18134;52.298;8.888;2023-01-30T09:19:39;6.90;99.90
31525;DHT22;18134;52.298;8.888;2023-01-30T09:22:05;6.70;99.90
31525;DHT22;18134;52.298;8.888;2023-01-30T09:24:34;6.70;99.90
31525;DHT22;18134;52.298;8.888;2023-01-30T09:27:00;6.90;99.90
31525;DHT22;18134;52.298;8.888;2023-01-30T09:29:28;7.00;99.90
31525;DHT22;18134;52.298;8.888;2023-01-30T09:31:54;6.80;99.90
31525;DHT22;18134;52.298;8.888;2023-01-30T09:34:21;6.90;99.90
31525;DHT22;18134;52.298;8.888;2023-01-30T09:36:52;7.00;99.90
31525;DHT22;18134;52.298;8.888;2023-01-30T09:39:18;6.80;99.90
31525;DHT22;18134;52.298;8.888;2023-01-30T09:46:57;7.00;99.90
31525;DHT22;18134;52.298;8.888;2023-01-30T09:49:30;7.10;99.90
31525;DHT22;18134;52.298;8.888;2023-01-30T09:52:19;7.00;99.90
31525;DHT22;18134;52.298;8.888;2023-01-30T09:54:47;7.20;99.90
31525;DHT22;18134;52.298;8.888;2023-01-30T10:02:34;6.80;99.90
31525;DHT22;18134;52.298;8.888;2023-01-30T10:05:05;6.90;99.90
31525;DHT22;18134;52.298;8.888;2023-01-30T10:07:43;6.70;99.90
31525;DHT22;18134;52.298;8.888;2023-01-30T10:13:01;6.70;99.90
31525;DHT22;18134;52.298;8.888;2023-01-30T10:25:25;7.10;99.90
31525;DHT22;18134;52.298;8.888;2023-01-30T10:27:57;6.90;99.90
31525;DHT22;18134;52.298;8.888;2023-01-30T10:30:25;6.70;99.90
31525;DHT22;18134;52.298;8.888;2023-01-30T10:33:01;6.20;99.90
31525;DHT22;18134;52.298;8.888;2023-01-30T10:35:33;6.00;99.90
31525;DHT22;18134;52.298;8.888;2023-01-30T10:38:09;5.70;99.90
31525;DHT22;18134;52.298;8.888;2023-01-30T10:40:45;5.70;99.90
31525;DHT22;18134;52.298;8.888;2023-01-30T10:45:54;5.60;99.90
31525;DHT22;18134;52.298;8.888;2023-01-30T10:48:24;5.70;99.90
31525;DHT22;18134;52.298;8.888;2023-01-30T10:58:37;6.30;99.90
31525;DHT22;18134;52.298;8.888;2023-01-30T11:01:10;6.40;99.90
31525;DHT22;18134;52.298;8.888;2023-01-30T11:03:40;6.50;99.90
31525;DHT22;18134;52.298;8.888;2023-01-30T11:06:09;6.70;99.90
31525;DHT22;18134;52.298;8.888;2023-01-30T11:08:35;6.90;99.90
31525;DHT22;18134;52.298;8.888;2023-01-30T11:11:19;6.00;99.90
31525;DHT22;18134;52.298;8.888;2023-01-30T11:13:46;7.00;99.90
31525;DHT22;18134;52.298;8.888;2023-01-30T11:16:12;6.80;99.90
31525;DHT22;18134;52.298;8.888;2023-01-30T11:18:45;6.80;99.90
31525;DHT22;18134;52.298;8.888;2023-01-30T11:21:13;6.90;99.90
31525;DHT22;18134;52.298;8.888;2023-01-30T11:23:42;7.20;99.90
31525;DHT22;18134;52.298;8.888;2023-01-30T11:26:18;7.20;99.90
31525;DHT22;18134;52.298;8.888;2023-01-30T11:28:44;7.20;99.90
31525;DHT22;18134;52.298;8.888;2023-01-30T11:34:10;7.20;99.90
31525;DHT22;18134;52.298;8.888;2023-01-30T11:36:36;7.60;99.90
31525;DHT22;18134;52.298;8.888;2023-01-30T11:41:56;7.50;99.90
31525;DHT22;18134;52.298;8.888;2023-01-30T11:46:57;7.60;99.90
31525;DHT22;18134;52.298;8.888;2023-01-30T11:49:27;7.50;99.90
31525;DHT22;18134;52.298;8.888;2023-01-30T11:51:55;7.30;99.90
31525;DHT22;18134;52.298;8.888;2023-01-30T11:54:30;7.20;99.90
31525;DHT22;18134;52.298;8.888;2023-01-30T11:56:58;6.80;99.90
31525;DHT22;18134;52.298;8.888;2023-01-30T11:59:33;6.70;99.90
31525;DHT22;18134;52.298;8.888;2023-01-30T12:02:13;6.80;99.90
31525;DHT22;18134;52.298;8.888;2023-01-30T12:04:44;6.90;99.90
31525;DHT22;18134;52.298;8.888;2023-01-30T12:07:29;7.40;99.90
31525;DHT22;18134;52.298;8.888;2023-01-30T12:09:55;6.80;99.90
31525;DHT22;18134;52.298;8.888;2023-01-30T12:12:42;7.00;99.90
31525;DHT22;18134;52.298;8.888;2023-01-30T12:20:22;6.70;99.90
31525;DHT22;18134;52.298;8.888;2023-01-30T12:23:02;6.70;99.90
31525;DHT22;18134;52.298;8.888;2023-01-30T12:25:35;6.80;99.90
31525;DHT22;18134;52.298;8.888;2023-01-30T12:30:47;7.30;99.90
31525;DHT22;18134;52.298;8.888;2023-01-30T12:33:15;7.10;99.90
31525;DHT22;18134;52.298;8.888;2023-01-30T12:41:31;6.60;99.90
31525;DHT22;18134;52.298;8.888;2023-01-30T12:43:45;6.60;99.90
31525;DHT22;18134;52.298;8.888;2023-01-30T13:01:27;6.90;99.90
31525;DHT22;18134;52.298;8.888;2023-01-30T13:19:46;7.20;99.90
31525;DHT22;18134;52.298;8.888;2023-01-30T13:22:19;7.20;99.90
31525;DHT22;18134;52.298;8.888;2023-01-30T13:27:21;7.00;99.90
31525;DHT22;18134;52.298;8.888;2023-01-30T13:29:48;7.00;99.90
31525;DHT22;18134;52.298;8.888;2023-01-30T13:32:21;7.00;99.90
31525;DHT22;18134;52.298;8.888;2023-01-30T13:34:52;6.70;99.90
31525;DHT22;18134;52.298;8.888;2023-01-30T13:37:21;6.70;99.90
31525;DHT22;18134;52.298;8.888;2023-01-30T13:42:32;6.60;99.90
31525;DHT22;18134;52.298;8.888;2023-01-30T13:45:01;7.00;99.90
31525;DHT22;18134;52.298;8.888;2023-01-30T13:47:32;7.20;99.90
31525;DHT22;18134;52.298;8.888;2023-01-30T13:52:41;7.40;99.90
31525;DHT22;18134;52.298;8.888;2023-01-30T13:55:34;7.70;99.90
31525;DHT22;18134;52.298;8.888;2023-01-30T14:00:36;7.30;99.90
31525;DHT22;18134;52.298;8.888;2023-01-30T14:08:18;7.30;99.90
31525;DHT22;18134;52.298;8.888;2023-01-30T14:10:44;7.60;99.90
31525;DHT22;18134;52.298;8.888;2023-01-30T14:13:11;7.30;99.90
31525;DHT22;18134;52.298;8.888;2023-01-30T14:15:52;7.40;99.90
31525;DHT22;18134;52.298;8.888;2023-01-30T14:18:21;7.30;99.90
31525;DHT22;18134;52.298;8.888;2023-01-30T14:20:50;7.40;99.90
31525;DHT22;18134;52.298;8.888;2023-01-30T14:23:21;7.30;99.90
31525;DHT22;18134;52.298;8.888;2023-01-30T14:25:56;7.50;99.90
31525;DHT22;18134;52.298;8.888;2023-01-30T14:30:54;7.00;99.90
31525;DHT22;18134;52.298;8.888;2023-01-30T14:35:46;7.50;99.90
31525;DHT22;18134;52.298;8.888;2023-01-30T14:38:16;7.50;99.90
31525;DHT22;18134;52.298;8.888;2023-01-30T14:51:53;7.60;99.90
31525;DHT22;18134;52.298;8.888;2023-01-30T14:56:43;7.30;99.90
31525;DHT22;18134;52.298;8.888;2023-01-30T14:59:30;7.40;99.90
31525;DHT22;18134;52.298;8.888;2023-01-30T15:04:19;7.20;99.90
31525;DHT22;18134;52.298;8.888;2023-01-30T15:06:45;7.20;99.90
31525;DHT22;18134;52.298;8.888;2023-01-30T15:09:15;7.50;99.90
31525;DHT22;18134;52.298;8.888;2023-01-30T15:11:41;7.30;99.90
31525;DHT22;18134;52.298;8.888;2023-01-30T15:14:23;7.30;99.90
31525;DHT22;18134;52.298;8.888;2023-01-30T15:19:28;7.10;99.90
31525;DHT22;18134;52.298;8.888;2023-01-30T15:22:06;7.20;99.90
31525;DHT22;18134;52.298;8.888;2023-01-30T15:27:22;7.00;99.90
31525;DHT22;18134;52.298;8.888;2023-01-30T15:35:33;6.70;99.90
31525;DHT22;18134;52.298;8.888;2023-01-30T15:40:46;6.50;99.90
31525;DHT22;18134;52.298;8.888;2023-01-30T15:50:59;6.30;99.90
31525;DHT22;18134;52.298;8.888;2023-01-30T15:53:26;6.10;99.90
31525;DHT22;18134;52.298;8.888;2023-01-30T15:55:53;5.90;99.90
31525;DHT22;18134;52.298;8.888;2023-01-30T15:58:19;6.30;99.90
31525;DHT22;18134;52.298;8.888;2023-01-30T16:01:03;5.90;99.90
31525;DHT22;18134;52.298;8.888;2023-01-30T16:03:31;5.90;99.90
31525;DHT22;18134;52.298;8.888;2023-01-30T16:05:58;6.00;99.90
31525;DHT22;18134;52.298;8.888;2023-01-30T16:08:25;6.10;99.90
31525;DHT22;18134;52.298;8.888;2023-01-30T16:10:51;6.20;99.90
31525;DHT22;18134;52.298;8.888;2023-01-30T16:13:17;6.50;99.90
31525;DHT22;18134;52.298;8.888;2023-01-30T16:15:48;6.30;99.90
31525;DHT22;18134;52.298;8.888;2023-01-30T16:20:47;6.20;99.90
31525;DHT22;18134;52.298;8.888;2023-01-30T16:23:21;6.30;99.90
31525;DHT22;18134;52.298;8.888;2023-01-30T16:25:47;6.40;99.90
31525;DHT22;18134;52.298;8.888;2023-01-30T16:28:18;6.30;99.90
31525;DHT22;18134;52.298;8.888;2023-01-30T16:30:44;6.40;99.90
31525;DHT22;18134;52.298;8.888;2023-01-30T16:33:12;6.30;99.90
31525;DHT22;18134;52.298;8.888;2023-01-30T16:35:42;6.30;99.90
31525;DHT22;18134;52.298;8.888;2023-01-30T16:38:30;6.30;99.90
31525;DHT22;18134;52.298;8.888;2023-01-30T16:40:55;6.50;99.90
31525;DHT22;18134;52.298;8.888;2023-01-30T16:43:23;6.30;99.90
31525;DHT22;18134;52.298;8.888;2023-01-30T16:50:44;6.10;99.90
31525;DHT22;18134;52.298;8.888;2023-01-30T16:53:14;6.00;99.90
31525;DHT22;18134;52.298;8.888;2023-01-30T16:56:02;6.00;99.90
31525;DHT22;18134;52.298;8.888;2023-01-30T16:58:28;6.50;99.90
31525;DHT22;18134;52.298;8.888;2023-01-30T17:00:57;5.90;99.90
31525;DHT22;18134;52.298;8.888;2023-01-30T17:03:24;5.70;99.90
31525;DHT22;18134;52.298;8.888;2023-01-30T17:05:56;5.70;99.90
31525;DHT22;18134;52.298;8.888;2023-01-30T17:11:04;5.80;99.90
31525;DHT22;18134;52.298;8.888;2023-01-30T17:13:37;5.60;99.90
31525;DHT22;18134;52.298;8.888;2023-01-30T17:16:16;5.70;99.90
31525;DHT22;18134;52.298;8.888;2023-01-30T17:18:45;5.60;99.90
31525;DHT22;18134;52.298;8.888;2023-01-30T17:21:13;5.50;99.90
31525;DHT22;18134;52.298;8.888;2023-01-30T17:23:40;6.20;99.90
31525;DHT22;18134;52.298;8.888;2023-01-30T17:26:09;5.70;99.90
31525;DHT22;18134;52.298;8.888;2023-01-30T17:28:36;6.10;99.90
31525;DHT22;18134;52.298;8.888;2023-01-30T17:31:03;5.30;99.90
31525;DHT22;18134;52.298;8.888;2023-01-30T17:33:29;5.30;99.90
31525;DHT22;18134;52.298;8.888;2023-01-30T17:35:56;5.30;99.90
31525;DHT22;18134;52.298;8.888;2023-01-30T17:38:22;5.40;99.90
31525;DHT22;18134;52.298;8.888;2023-01-30T17:40:48;5.60;99.90
31525;DHT22;18134;52.298;8.888;2023-01-30T17:43:13;5.40;99.90
31525;DHT22;18134;52.298;8.888;2023-01-30T17:45:40;5.40;99.90
31525;DHT22;18134;52.298;8.888;2023-01-30T17:48:05;5.50;99.90
31525;DHT22;18134;52.298;8.888;2023-01-30T17:50:31;5.50;99.90
31525;DHT22;18134;52.298;8.888;2023-01-30T17:52:57;5.30;99.90
31525;DHT22;18134;52.298;8.888;2023-01-30T17:55:23;5.50;99.90
31525;DHT22;18134;52.298;8.888;2023-01-30T17:57:48;5.50;99.90
31525;DHT22;18134;52.298;8.888;2023-01-30T18:00:17;5.20;99.90
31525;DHT22;18134;52.298;8.888;2023-01-30T18:02:43;5.70;99.90
31525;DHT22;18134;52.298;8.888;2023-01-30T18:05:12;5.50;99.90
31525;DHT22;18134;52.298;8.888;2023-01-30T18:07:38;5.50;99.90
31525;DHT22;18134;52.298;8.888;2023-01-30T18:10:04;5.60;99.90
31525;DHT22;18134;52.298;8.888;2023-01-30T18:12:30;6.00;99.90
31525;DHT22;18134;52.298;8.888;2023-01-30T18:14:56;5.70;99.90
31525;DHT22;18134;52.298;8.888;2023-01-30T18:17:23;5.70;99.90
31525;DHT22;18134;52.298;8.888;2023-01-30T18:19:53;5.60;99.90
31525;DHT22;18134;52.298;8.888;2023-01-30T18:22:19;5.60;99.90
31525;DHT22;18134;52.298;8.888;2023-01-30T18:24:45;5.70;99.90
31525;DHT22;18134;52.298;8.888;2023-01-30T18:27:11;5.70;99.90
31525;DHT22;18134;52.298;8.888;2023-01-30T18:29:37;5.60;99.90
31525;DHT22;18134;52.298;8.888;2023-01-30T18:32:03;6.00;99.90
31525;DHT22;18134;52.298;8.888;2023-01-30T18:34:30;5.50;99.90
31525;DHT22;18134;52.298;8.888;2023-01-30T18:36:59;5.50;99.90
31525;DHT22;18134;52.298;8.888;2023-01-30T18:39:24;5.50;99.90
31525;DHT22;18134;52.298;8.888;2023-01-30T18:41:52;5.50;99.90
31525;DHT22;18134;52.298;8.888;2023-01-30T18:44:20;5.60;99.90
31525;DHT22;18134;52.298;8.888;2023-01-30T18:46:47;5.50;99.90
31525;DHT22;18134;52.298;8.888;2023-01-30T18:49:13;5.60;99.90
31525;DHT22;18134;52.298;8.888;2023-01-30T18:51:39;5.70;99.90
31525;DHT22;18134;52.298;8.888;2023-01-30T18:54:06;5.60;99.90
31525;DHT22;18134;52.298;8.888;2023-01-30T18:56:32;5.60;99.90
31525;DHT22;18134;52.298;8.888;2023-01-30T18:58:59;5.60;99.90
31525;DHT22;18134;52.298;8.888;2023-01-30T19:01:29;5.70;99.90
31525;DHT22;18134;52.298;8.888;2023-01-30T19:03:55;5.60;99.90
31525;DHT22;18134;52.298;8.888;2023-01-30T19:06:22;5.60;99.90
31525;DHT22;18134;52.298;8.888;2023-01-30T19:08:48;4.70;99.90
31525;DHT22;18134;52.298;8.888;2023-01-30T19:11:15;5.60;99.90
31525;DHT22;18134;52.298;8.888;2023-01-30T19:13:59;5.60;99.90
31525;DHT22;18134;52.298;8.888;2023-01-30T19:16:26;5.60;99.90
31525;DHT22;18134;52.298;8.888;2023-01-30T19:18:52;5.60;99.90
31525;DHT22;18134;52.298;8.888;2023-01-30T19:21:18;5.70;99.90
31525;DHT22;18134;52.298;8.888;2023-01-30T19:23:44;5.30;99.90
31525;DHT22;18134;52.298;8.888;2023-01-30T19:26:10;5.40;99.90
31525;DHT22;18134;52.298;8.888;2023-01-30T19:28:36;5.60;99.90
31525;DHT22;18134;52.298;8.888;2023-01-30T19:31:05;5.40;99.90
31525;DHT22;18134;52.298;8.888;2023-01-30T19:33:31;5.40;99.90
31525;DHT22;18134;52.298;8.888;2023-01-30T19:38:32;5.50;99.90
31525;DHT22;18134;52.298;8.888;2023-01-30T19:40:58;4.70;99.90
31525;DHT22;18134;52.298;8.888;2023-01-30T19:43:24;5.50;99.90
31525;DHT22;18134;52.298;8.888;2023-01-30T19:45:54;5.80;99.90
31525;DHT22;18134;52.298;8.888;2023-01-30T19:48:23;5.50;99.90
31525;DHT22;18134;52.298;8.888;2023-01-30T19:50:49;5.50;99.90
31525;DHT22;18134;52.298;8.888;2023-01-30T19:53:15;5.50;99.90
31525;DHT22;18134;52.298;8.888;2023-01-30T19:55:40;5.70;99.90
31525;DHT22;18134;52.298;8.888;2023-01-30T19:58:06;5.90;99.90
31525;DHT22;18134;52.298;8.888;2023-01-30T20:00:31;5.60;99.90
31525;DHT22;18134;52.298;8.888;2023-01-30T20:03:00;5.70;99.90
31525;DHT22;18134;52.298;8.888;2023-01-30T20:05:28;5.70;99.90
31525;DHT22;18134;52.298;8.888;2023-01-30T20:07:54;5.80;99.90
31525;DHT22;18134;52.298;8.888;2023-01-30T20:10:20;5.70;99.90
31525;DHT22;18134;52.298;8.888;2023-01-30T20:12:45;6.00;99.90
31525;DHT22;18134;52.298;8.888;2023-01-30T20:15:11;5.70;99.90
31525;DHT22;18134;52.298;8.888;2023-01-30T20:17:37;5.80;99.90
31525;DHT22;18134;52.298;8.888;2023-01-30T20:22:51;5.50;99.90
31525;DHT22;18134;52.298;8.888;2023-01-30T20:25:17;5.50;99.90
31525;DHT22;18134;52.298;8.888;2023-01-30T20:27:43;5.70;99.90
31525;DHT22;18134;52.298;8.888;2023-01-30T20:30:10;5.60;99.90
31525;DHT22;18134;52.298;8.888;2023-01-30T20:32:38;5.50;99.90
31525;DHT22;18134;52.298;8.888;2023-01-30T20:35:04;5.40;99.90
31525;DHT22;18134;52.298;8.888;2023-01-30T20:37:30;5.40;99.90
31525;DHT22;18134;52.298;8.888;2023-01-30T20:39:56;5.50;99.90
31525;DHT22;18134;52.298;8.888;2023-01-30T20:42:22;5.60;99.90
31525;DHT22;18134;52.298;8.888;2023-01-30T20:44:50;5.50;99.90
31525;DHT22;18134;52.298;8.888;2023-01-30T20:47:16;6.10;99.90